• Join FlightAware (Why Join?)
  • Login
  • US Flag 
06:10AM EDT


 

Airport Tracker/Info


-or-


 

Live Flight TrackerFlight Track Log ✈ N777NC ✈ 03-Jul-2013 ✈ KGPT - KATL

Flight Track Log - Related Links

Times and Time Zones

All times are in EDT time to prevent confusion due to time zone crossing. See the N777NC flight status page for this flight to view local times or setup timezone preferences in your user account.

Time Position Orientation Groundspeed Altitude Reporting Facility
EDT Latitude Longitude Course Direction KTS MPH feet Rate Location/Type
07:55AM 30.4828 -89.0844 58° Northeast 224 258 2,300  Level Houston Center
07:56AM 30.5394 -89.0397 34° Northeast 240 276 4,600 2,100 Climbing Houston Center
07:57AM 30.5950 -88.9794 43° Northeast 258 297 6,600 2,100 Climbing Houston Center
07:58AM 30.6522 -88.9175 43° Northeast 272 313 8,900 1,860 Climbing Houston Center
08:00AM 30.7406 -88.8536 32° Northeast 294 338 10,500 1,440 Climbing Houston Center
08:01AM 31.0096 -88.6205 58° Northeast  Level FlightAware Approximate
08:01AM 30.8292 -88.7883 32° Northeast 344 396 11,900  Level Houston Center
08:02AM 30.9194 -88.7211 33° Northeast 377 434 13,900 1,980 Climbing Houston Center
08:03AM 30.9933 -88.6275 47° Northeast 392 451 16,000 1,800 Climbing Houston Center
08:04AM 31.0642 -88.5281 50° Northeast 398 458 17,600 1,380 Climbing Houston Center
08:05AM 31.1378 -88.4239 50° Northeast 410 472 18,900 1,080 Climbing Houston Center
08:06AM 31.2167 -88.3183 49° Northeast 424 488 19,800 1,020 Climbing Houston Center
08:07AM 31.2956 -88.2075 50° Northeast 440 506 21,100 1,080 Climbing Houston Center
08:08AM 31.3733 -88.0958 51° Northeast 441 507 22,100 840 Climbing Houston Center
08:09AM 31.4472 -87.9772 54° Northeast 448 516 22,900 840 Climbing Houston Center
08:10AM 31.5236 -87.8597 53° Northeast 452 520 23,900 960 Climbing Houston Center
08:11AM 31.5992 -87.7364 54° Northeast 462 532 24,900 1,020 Climbing Houston Center
08:12AM 31.6844 -87.6189 50° Northeast 456 525 25,900 960 Climbing Atlanta Center
08:13AM 31.7650 -87.4975 52° Northeast 462 532 26,700 840 Climbing Atlanta Center
08:14AM 31.8497 -87.3736 51° Northeast 468 539 27,600 780 Climbing Atlanta Center
08:15AM 31.9217 -87.2589 54° Northeast 474 545 28,300 660 Climbing Atlanta Center
08:16AM 32.0150 -87.1203 52° Northeast 479 551 29,000 300 Climbing Atlanta Center
08:17AM 32.1081 -86.9886 50° Northeast 492 566 29,000  Level Atlanta Center
08:18AM 32.2006 -86.8639 49° Northeast 503 579 29,000  Level Atlanta Center
08:19AM 32.2931 -86.7392 49° Northeast 508 585 29,000  Level Atlanta Center
08:20AM 32.3792 -86.6189 50° Northeast 496 571 29,000  Level Atlanta Center
08:21AM 32.4547 -86.4981 53° Northeast 477 549 29,000  Level Atlanta Center
08:22AM 32.5200 -86.3642 60° Northeast 470 541 29,000  Level Atlanta Center
08:23AM 32.5889 -86.2403 57° Northeast 459 528 29,000  Level Atlanta Center
08:24AM 32.6744 -86.1242 49° Northeast 454 522 29,000 -180 Level Atlanta Center
08:25AM 32.7661 -86.0175 44° Northeast 454 522 28,700 -540 Descending Atlanta Center
08:26AM 32.8533 -85.9033 48° Northeast 454 522 28,000 -780 Descending Atlanta Center
08:27AM 32.9117 -85.7733 62° Northeast 454 522 27,200 -1,740 Descending Atlanta Center
08:28AM 32.8778 -85.6639 110° East 374 430 24,600 -1,560 Descending Atlanta Center
08:29AM 32.7936 -85.7092 204° Southwest 185 213 24,100 -300 Descending Atlanta Center
08:30AM 32.7461 -85.8194 243° Southwest 237 273 24,000 -240 Descending Atlanta Center
08:31AM 32.7444 -85.9381 269° West 298 343 23,700 -540 Descending Atlanta Center
08:32AM 32.8414 -86.0019 331° Northwest 293 337 23,000 -300 Descending Atlanta Center
08:33AM 32.9478 -86.0167 353° North 323 372 23,100  Climbing Atlanta Center
08:34AM 33.0222 -85.9242 46° Northeast 293 337 23,000 -60 Descending Atlanta Center
08:35AM 32.9906 -85.7972 107° East 272 313 23,000  Level Atlanta Center
08:36AM 32.9608 -85.6828 107° East 303 349 23,100  Climbing Atlanta Center
08:37AM 32.9436 -85.5586 99° East 347 399 23,000 -60 Descending Atlanta Center
08:38AM 32.9181 -85.4369 104° East 369 425 23,000  Level Atlanta Center
08:39AM 32.8986 -85.3081 100° East 383 441 23,000 -60 Level Atlanta Center
08:40AM 32.8392 -85.2008 123° Southeast 383 441 22,900  Descending Atlanta Center
08:41AM 32.7519 -85.1331 147° Southeast 358 412 23,000 3,000 Climbing Atlanta Center
08:42AM 32.6817 -85.0483 135° Southeast 363 418 29,000 -1,020 Climbing Atlanta Center
08:43AM 32.6806 -84.9222 91° East 341 392 21,000 -4,320 Descending Atlanta Center
08:44AM 32.6792 -84.8114 91° East 352 405 20,400 -660 Descending Atlanta Center
08:45AM 32.6947 -84.6806 82° East 372 428 19,700 -720 Descending Atlanta Center
08:46AM 32.7203 -84.5572 76° East 377 434 19,000 -360 Descending Atlanta Center
08:47AM 32.7394 -84.4314 80° East 383 441 19,000 120 Level Atlanta Center
08:48AM 32.7272 -84.3031 96° East 383 441 19,300 480 Climbing Atlanta Center
08:49AM 32.7192 -84.1794 94° East 383 441 20,000 300 Climbing Atlanta Center
08:50AM 32.7067 -84.0536 97° East 383 441 20,000  Level Atlanta Center
08:51AM 32.6919 -83.9228 98° East 395 455 20,000  Level Atlanta Center
08:52AM 32.6647 -83.7922 104° East 395 455 20,000  Level Atlanta Center
08:53AM 32.6539 -83.6639 96° East 395 455 20,000  Level Atlanta Center
08:54AM 32.6453 -83.5406 95° East 388 447 20,000  Level Atlanta Center
08:55AM 32.6342 -83.4222 96° East 377 434 20,000  Level Atlanta Center
08:56AM 32.6189 -83.3064 99° East 359 413 20,000  Level Atlanta Center
08:57AM 32.6017 -83.1931 100° East 354 407 20,000  Level Atlanta Center
08:58AM 32.5861 -83.0750 99° East 354 407 20,000  Level Atlanta Center
08:59AM 32.5747 -82.9542 96° East 354 407 20,000  Level Atlanta Center
09:00AM 32.5611 -82.8386 98° East 354 407 20,000  Level Atlanta Center
09:01AM 32.4978 -82.7631 135° Southeast 343 395 20,000  Level Atlanta Center
09:02AM 32.4014 -82.7325 165° South 307 353 20,000  Level Atlanta Center
09:03AM 32.3072 -82.7242 176° South 321 369 20,000  Level Atlanta Center
09:04AM 32.2792 -82.8178 251° West 254 292 20,000  Level Atlanta Center
09:05AM 32.3733 -82.8511 343° North 162 186 20,000  Level Atlanta Center
09:06AM 32.4711 -82.8103 19° North 250 288 20,000  Level Atlanta Center
09:07AM 32.5264 -82.7133 56° Northeast 301 346 20,000  Level Atlanta Center
09:08AM 32.4936 -82.5933 108° East 299 344 20,000 -1,320 Level Atlanta Center
09:09AM 32.4433 -82.4100 108° East 346 398 16,700 -2,220 Descending Jacksonville Center
09:10AM 32.4114 -82.2922 108° East 358 412 14,400 -2,280 Descending Jacksonville Center
09:11AM 32.3881 -82.1864 105° East 342 394 12,200 -1,560 Descending Jacksonville Center
09:12AM 32.3667 -82.0956 106° East 327 376 11,300 -600 Descending Jacksonville Center
09:13AM 32.3428 -81.9975 106° East 299 344 11,100 -780 Descending Jacksonville Center
09:14AM 32.3233 -81.9092 105° East 279 321 9,800 -1,020 Descending Jacksonville Center
09:15AM 32.3019 -81.8208 106° East 274 315 9,100 -840 Descending Jacksonville Center
09:16AM 32.2761 -81.7550 115° Southeast 259 298 8,200 -1,500 Descending Jacksonville Center
09:17AM 32.2361 -81.6939 128° Southeast 244 281 6,200 -2,040 Descending Jacksonville Center
09:18AM 32.1917 -81.6283 129° Southeast 226 260 4,200 -1,380 Descending Jacksonville Center
09:19AM 32.1597 -81.5772 126° Southeast 226 260 3,500 -840 Descending Jacksonville Center
09:20AM 32.1339 -81.5039 113° Southeast 221 254 2,600 -780 Descending Jacksonville Center
09:21AM 32.1308 -81.4281 93° East 221 254 2,000 -300 Descending Jacksonville Center
09:22AM 32.1281 -81.3569 93° East 221 254 2,000  Level Jacksonville Center
09:24AM 32.1167 -81.2000 North  Level FlightAware Approximate
09:31AM 32.1276 -81.2021 North  Level Estimated
09:32AM 32.1276 -81.2021 North  Level Estimated
09:33AM 32.1276 -81.2021 North  Level Estimated
09:34AM 32.1276 -81.2021 North  Level Estimated
09:35AM 32.1276 -81.2021 North  Level Estimated
09:36AM 32.1276 -81.2021 North  Level Estimated
09:37AM 32.1276 -81.2021 North  Level Estimated